createdAt,value
2019-06-10T00:02:05.256Z,23.20
2019-06-10T00:04:38.782Z,24.02
2019-06-10T00:07:12.035Z,21.62
2019-06-10T00:09:44.491Z,21.45
2019-06-10T00:12:17.063Z,21.20
2019-06-10T00:14:50.966Z,19.17
2019-06-10T00:17:23.683Z,17.75
2019-06-10T00:19:57.145Z,17.07
2019-06-10T00:22:31.528Z,17.07
2019-06-10T00:25:07.313Z,17.12
2019-06-10T00:30:13.861Z,15.98
2019-06-10T00:32:46.434Z,14.87
2019-06-10T00:35:21.117Z,15.20
2019-06-10T00:37:53.663Z,14.53
2019-06-10T00:40:26.134Z,14.85
2019-06-10T00:43:00.071Z,15.15
2019-06-10T00:45:32.769Z,14.83
2019-06-10T00:48:15.780Z,15.95
2019-06-10T00:50:41.391Z,16.70
2019-06-10T00:53:14.823Z,15.90
2019-06-10T00:55:47.339Z,16.77
2019-06-10T00:58:21.634Z,18.42
2019-06-10T01:00:53.794Z,17.65
2019-06-10T01:03:26.325Z,18.52
2019-06-10T01:06:01.136Z,21.55
2019-06-10T01:08:33.124Z,23.25
2019-06-10T01:11:12.526Z,24.75
2019-06-10T01:13:41.377Z,28.52
2019-06-10T01:16:15.507Z,25.37
2019-06-10T01:18:51.069Z,26.80
2019-06-10T01:21:23.599Z,23.57
2019-06-10T01:23:56.049Z,22.98
2019-06-10T01:26:30.871Z,22.58
2019-06-10T01:29:03.007Z,21.62
2019-06-10T01:31:35.477Z,19.90
2019-06-10T01:34:07.899Z,20.88
2019-06-10T01:36:40.778Z,19.12
2019-06-10T01:39:14.877Z,19.60
2019-06-10T01:41:47.759Z,19.50
2019-06-10T01:44:22.010Z,17.73
2019-06-10T01:46:54.502Z,17.10
2019-06-10T01:49:27.250Z,17.75
2019-06-10T01:52:01.677Z,22.50
2019-06-10T01:54:34.769Z,25.32
2019-06-10T01:57:07.742Z,28.02
2019-06-10T01:59:41.293Z,28.32
2019-06-10T02:02:17.293Z,29.48
2019-06-10T02:04:51.754Z,29.60
2019-06-10T02:07:24.762Z,27.95
2019-06-10T02:09:57.197Z,22.45
2019-06-10T02:12:31.531Z,20.97
2019-06-10T02:15:07.800Z,24.07
2019-06-10T02:17:41.720Z,35.03
2019-06-10T02:20:16.855Z,42.55
2019-06-10T02:22:51.577Z,54.27
2019-06-10T02:25:24.245Z,52.20
2019-06-10T02:27:56.797Z,36.17
2019-06-10T02:30:41.758Z,26.17
2019-06-10T02:33:03.674Z,19.73
2019-06-10T02:35:43.910Z,20.57
2019-06-10T02:38:10.315Z,19.40
2019-06-10T02:40:43.679Z,21.05
2019-06-10T02:43:20.970Z,18.17
2019-06-10T02:45:53.103Z,19.80
2019-06-10T02:48:30.446Z,16.75
2019-06-10T02:51:07.516Z,16.70
2019-06-10T02:53:43.086Z,15.10
2019-06-10T02:56:17.730Z,13.10
2019-06-10T02:58:53.249Z,12.60
2019-06-10T03:01:31.892Z,12.82
2019-06-10T03:03:58.332Z,11.50
2019-06-10T03:06:36.301Z,10.75
2019-06-10T03:09:07.226Z,10.83
2019-06-10T03:11:41.531Z,9.00
2019-06-10T03:14:16.235Z,9.93
2019-06-10T03:16:52.587Z,10.00
2019-06-10T03:19:41.856Z,11.95
2019-06-10T03:22:02.610Z,10.58
2019-06-10T03:24:34.486Z,9.50
2019-06-10T03:27:08.333Z,9.45
2019-06-10T03:29:42.143Z,9.73
2019-06-10T03:32:17.687Z,9.78
2019-06-10T03:34:49.663Z,9.37
2019-06-10T03:37:23.245Z,10.28
2019-06-10T03:39:56.349Z,10.03
2019-06-10T03:42:28.868Z,10.38
2019-06-10T03:45:03.322Z,10.80
2019-06-10T03:47:35.665Z,10.82
2019-06-10T03:50:13.212Z,10.78
2019-06-10T03:52:46.162Z,10.50
2019-06-10T03:55:19.348Z,10.30
2019-06-10T03:57:52.653Z,10.45
2019-06-10T04:00:27.303Z,11.25
2019-06-10T04:02:59.864Z,11.18
2019-06-10T04:05:33.127Z,12.13
2019-06-10T04:08:05.717Z,12.28
2019-06-10T04:10:38.435Z,13.03
2019-06-10T04:13:13.192Z,13.20
2019-06-10T04:15:45.954Z,14.65
2019-06-10T04:18:19.688Z,13.72
2019-06-10T04:20:52.948Z,14.13
2019-06-10T04:23:26.913Z,14.53
2019-06-10T04:26:02.047Z,15.50
2019-06-10T04:28:34.224Z,14.28
2019-06-10T04:31:06.821Z,14.40
2019-06-10T04:33:39.311Z,12.85
2019-06-10T04:36:13.432Z,13.10
2019-06-10T04:38:45.919Z,12.45
2019-06-10T04:41:18.425Z,11.85
2019-06-10T04:43:52.999Z,12.40
2019-06-10T04:46:26.477Z,12.10
2019-06-10T04:49:02.496Z,11.12
2019-06-10T04:51:34.307Z,11.48
2019-06-10T04:54:07.365Z,11.55
2019-06-10T04:56:39.970Z,10.63
2019-06-10T04:59:12.732Z,10.63
2019-06-10T05:01:45.447Z,11.73
2019-06-10T05:04:18.921Z,12.23
2019-06-10T05:06:52.669Z,11.60
2019-06-10T05:09:27.620Z,11.77
2019-06-10T05:11:59.729Z,10.98
2019-06-10T05:14:33.404Z,9.98
2019-06-10T05:17:06.400Z,11.57
2019-06-10T05:19:39.143Z,12.40
2019-06-10T05:22:12.402Z,13.20
2019-06-10T05:24:47.921Z,14.50
2019-06-10T05:27:25.353Z,14.03
2019-06-10T05:29:57.096Z,11.97
2019-06-10T05:32:33.450Z,11.08
2019-06-10T05:35:07.733Z,11.10
2019-06-10T05:37:42.437Z,8.80
2019-06-10T05:40:15.015Z,8.73
2019-06-10T05:42:52.913Z,8.25
2019-06-10T05:45:27.477Z,7.92
2019-06-10T05:48:02.959Z,8.70
2019-06-10T05:50:35.436Z,7.75
2019-06-10T05:53:07.887Z,7.75
2019-06-10T05:55:42.729Z,7.70
2019-06-10T05:58:16.045Z,7.78
2019-06-10T06:00:53.126Z,7.55
2019-06-10T06:03:27.800Z,7.60
2019-06-10T06:06:02.895Z,7.45
2019-06-10T06:08:35.484Z,7.20
2019-06-10T06:11:08.106Z,7.30
2019-06-10T06:13:42.981Z,7.10
2019-06-10T06:16:15.012Z,6.97
2019-06-10T06:18:47.567Z,7.92
2019-06-10T06:21:28.885Z,7.45
2019-06-10T06:23:54.262Z,7.22
2019-06-10T06:26:28.456Z,7.28
2019-06-10T06:29:02.232Z,7.08
2019-06-10T06:31:36.505Z,6.90
2019-06-10T06:34:09.568Z,7.42
2019-06-10T06:36:42.359Z,6.80
2019-06-10T06:39:14.840Z,7.03
2019-06-10T06:41:48.949Z,7.35
2019-06-10T06:44:23.457Z,7.53
2019-06-10T06:46:56.097Z,7.08
2019-06-10T06:49:28.413Z,7.60
2019-06-10T06:52:02.866Z,7.45
2019-06-10T06:54:42.320Z,6.95
2019-06-10T06:57:14.083Z,7.55
2019-06-10T06:59:46.609Z,7.53
2019-06-10T07:02:22.757Z,7.20
2019-06-10T07:07:30.127Z,7.17
2019-06-10T07:10:03.573Z,7.65
2019-06-10T07:12:39.408Z,7.60
2019-06-10T07:15:12.845Z,7.37
2019-06-10T07:17:46.060Z,8.10
2019-06-10T07:20:20.282Z,7.80
2019-06-10T07:22:53.301Z,7.72
2019-06-10T07:25:26.006Z,8.25
2019-06-10T07:28:01.977Z,7.87
2019-06-10T07:30:37.655Z,7.70
2019-06-10T07:33:08.731Z,8.83
2019-06-10T07:35:43.752Z,9.88
2019-06-10T07:38:16.265Z,8.85
2019-06-10T07:40:53.053Z,8.85
2019-06-10T07:43:27.611Z,9.73
2019-06-10T07:46:03.417Z,8.55
2019-06-10T07:48:37.193Z,9.30
2019-06-10T07:51:12.889Z,9.60
2019-06-10T07:53:46.692Z,9.08
2019-06-10T07:56:18.804Z,8.95
2019-06-10T07:58:53.591Z,8.78
2019-06-10T08:01:26.080Z,7.85
2019-06-10T08:03:58.560Z,7.75
2019-06-10T08:06:36.109Z,8.00
2019-06-10T08:09:12.634Z,7.42
2019-06-10T08:11:48.780Z,7.72
2019-06-10T08:14:22.244Z,8.13
2019-06-10T08:16:56.519Z,7.78
2019-06-10T08:19:35.766Z,6.85
2019-06-10T08:22:05.344Z,7.03
2019-06-10T08:24:39.379Z,7.37
2019-06-10T08:27:13.361Z,6.67
2019-06-10T08:29:49.185Z,6.58
2019-06-10T08:32:24.229Z,7.20
2019-06-10T08:34:56.230Z,6.78
2019-06-10T08:37:28.544Z,7.00
2019-06-10T08:40:03.654Z,6.65
2019-06-10T08:42:34.907Z,6.72
2019-06-10T08:45:07.539Z,6.97
2019-06-10T08:47:41.151Z,7.00
2019-06-10T08:50:15.344Z,6.75
2019-06-10T08:53:03.938Z,7.70
2019-06-10T08:55:23.649Z,8.08
2019-06-10T08:57:56.763Z,7.53
2019-06-10T09:00:29.707Z,7.33
2019-06-10T09:03:04.162Z,6.97
2019-06-10T09:05:38.705Z,7.08
2019-06-10T09:08:13.001Z,7.00
2019-06-10T09:10:49.330Z,7.40
2019-06-10T09:13:19.705Z,6.83
2019-06-10T09:16:09.980Z,7.30
2019-06-10T09:18:26.661Z,7.53
2019-06-10T09:20:59.221Z,7.85
2019-06-10T09:23:33.188Z,7.28
2019-06-10T09:26:05.974Z,7.65
2019-06-10T09:28:39.427Z,6.70
2019-06-10T09:31:13.976Z,6.90
2019-06-10T09:33:50.222Z,6.72
2019-06-10T09:36:20.331Z,6.72
2019-06-10T09:38:54.987Z,6.67
2019-06-10T09:41:39.447Z,6.45
2019-06-10T09:44:03.277Z,6.72
2019-06-10T09:46:35.690Z,6.35
2019-06-10T09:49:08.147Z,7.20
2019-06-10T09:51:45.820Z,7.50
2019-06-10T09:54:16.419Z,7.95
2019-06-10T09:56:50.468Z,7.62
2019-06-10T09:59:23.695Z,7.25
2019-06-10T10:01:58.845Z,6.67
2019-06-10T10:04:32.633Z,7.03
2019-06-10T10:07:04.713Z,6.15
2019-06-10T10:09:37.257Z,5.92
2019-06-10T10:12:12.248Z,6.20
2019-06-10T10:14:46.942Z,5.72
2019-06-10T10:17:18.103Z,5.40
2019-06-10T10:19:54.839Z,5.33
2019-06-10T10:22:26.333Z,6.03
2019-06-10T10:24:58.684Z,5.72
2019-06-10T10:27:32.306Z,5.80
2019-06-10T10:30:07.885Z,5.67
2019-06-10T10:32:44.306Z,5.92
2019-06-10T10:35:15.529Z,5.83
2019-06-10T10:37:49.105Z,6.33
2019-06-10T10:40:24.212Z,5.83
2019-06-10T10:43:16.265Z,5.50
2019-06-10T10:45:32.536Z,5.80
2019-06-10T10:48:06.023Z,5.45
2019-06-10T10:50:38.319Z,5.53
2019-06-10T10:53:12.839Z,5.53
2019-06-10T10:55:45.251Z,5.70
2019-06-10T10:58:17.853Z,5.78
2019-06-10T11:00:54.431Z,5.20
2019-06-10T11:03:24.481Z,5.22
2019-06-10T11:06:00.670Z,5.47
2019-06-10T11:08:33.256Z,5.30
2019-06-10T11:11:06.015Z,5.55
2019-06-10T11:13:38.470Z,5.22
2019-06-10T11:16:11.947Z,5.50
2019-06-10T11:18:47.777Z,6.15
2019-06-10T11:23:59.929Z,5.87
2019-06-10T11:26:32.868Z,6.15
2019-06-10T11:29:07.221Z,5.75
2019-06-10T11:31:42.542Z,6.70
2019-06-10T11:34:19.730Z,6.37
2019-06-10T11:36:53.557Z,5.83
2019-06-10T11:39:33.828Z,5.75
2019-06-10T11:42:07.040Z,5.53
2019-06-10T11:44:43.035Z,5.45
2019-06-10T11:47:15.361Z,5.47
2019-06-10T11:49:48.959Z,5.33
2019-06-10T11:52:23.070Z,5.55
2019-06-10T11:55:09.164Z,6.00
2019-06-10T11:57:32.376Z,5.83
2019-06-10T12:00:13.629Z,6.05
2019-06-10T12:02:42.343Z,5.85
2019-06-10T12:05:17.412Z,5.50
2019-06-10T12:07:51.807Z,5.62
2019-06-10T12:10:27.849Z,5.70
2019-06-10T12:13:06.140Z,6.03
2019-06-10T12:16:19.847Z,6.30
2019-06-10T12:18:09.711Z,6.53
2019-06-10T12:20:42.659Z,6.65
2019-06-10T12:23:15.194Z,5.87
2019-06-10T12:25:48.112Z,6.83
2019-06-10T12:28:21.042Z,6.55
2019-06-10T12:30:58.248Z,6.12
2019-06-10T12:33:33.361Z,6.67
2019-06-10T12:36:07.697Z,6.15
2019-06-10T12:38:43.620Z,6.60
2019-06-10T12:43:48.643Z,6.00
2019-06-10T12:46:23.219Z,6.80
2019-06-10T12:48:59.297Z,6.03
2019-06-10T12:51:29.503Z,6.00
2019-06-10T12:54:04.812Z,6.17
2019-06-10T12:59:09.950Z,6.33
2019-06-10T13:01:44.789Z,7.00
2019-06-10T13:04:18.124Z,6.42
2019-06-10T13:06:52.597Z,5.85
2019-06-10T13:09:26.380Z,6.33
2019-06-10T13:11:59.815Z,6.70
2019-06-10T13:14:33.875Z,6.65
2019-06-10T13:17:08.353Z,5.83
2019-06-10T13:19:43.034Z,6.95
2019-06-10T13:22:15.623Z,6.65
2019-06-10T13:24:48.001Z,6.50
2019-06-10T13:27:22.742Z,6.83
2019-06-10T13:29:56.307Z,6.70
2019-06-10T13:32:29.367Z,6.45
2019-06-10T13:35:03.561Z,6.72
2019-06-10T13:37:35.961Z,6.40
2019-06-10T13:40:10.739Z,6.53
2019-06-10T13:42:42.930Z,6.37
2019-06-10T13:45:15.316Z,6.45
2019-06-10T13:47:48.207Z,6.70
2019-06-10T13:50:22.065Z,6.62
2019-06-10T13:52:58.467Z,6.67
2019-06-10T13:55:33.004Z,6.60
2019-06-10T13:58:07.989Z,6.92
2019-06-10T14:00:46.063Z,9.33
2019-06-10T14:03:16.270Z,9.78
2019-06-10T14:05:48.742Z,10.25
2019-06-10T14:08:23.264Z,16.12
2019-06-10T14:10:55.544Z,13.70
2019-06-10T14:13:28.034Z,9.35
2019-06-10T14:16:03.501Z,8.10
2019-06-10T14:18:36.701Z,7.67
2019-06-10T14:21:14.042Z,15.98
2019-06-10T14:23:44.066Z,12.33
2019-06-10T14:26:36.647Z,8.50
2019-06-10T14:28:56.368Z,8.38
2019-06-10T14:31:42.772Z,8.78
2019-06-10T14:34:04.333Z,8.05
2019-06-10T14:39:10.189Z,8.30
2019-06-10T14:41:43.375Z,9.00
2019-06-10T14:44:17.883Z,9.25
2019-06-10T14:46:50.176Z,10.15
2019-06-10T14:49:22.621Z,8.38
2019-06-10T14:51:56.639Z,8.23
2019-06-10T14:54:32.106Z,8.70
2019-06-10T14:57:05.236Z,15.15
2019-06-10T14:59:38.026Z,7.60
2019-06-10T15:02:12.876Z,7.70
2019-06-10T15:04:46.991Z,7.92
2019-06-10T15:07:20.841Z,8.40
2019-06-10T15:09:53.966Z,8.25
2019-06-10T15:12:26.406Z,7.65
2019-06-10T15:14:59.444Z,7.65
2019-06-10T15:17:32.548Z,7.05
2019-06-10T15:20:07.459Z,7.55
2019-06-10T15:22:40.016Z,7.80
2019-06-10T15:25:16.877Z,7.57
2019-06-10T15:27:48.343Z,7.20
2019-06-10T15:30:26.637Z,7.35
2019-06-10T15:32:55.393Z,7.60
2019-06-10T15:35:27.994Z,8.78
2019-06-10T15:38:03.961Z,8.20
2019-06-10T15:40:34.865Z,8.88
2019-06-10T15:43:07.793Z,9.30
2019-06-10T15:45:40.420Z,9.20
2019-06-10T15:48:16.633Z,9.40
2019-06-10T15:50:47.316Z,9.63
2019-06-10T15:53:25.323Z,9.15
2019-06-10T15:58:31.976Z,8.83
2019-06-10T16:01:04.500Z,9.58
2019-06-10T16:03:37.363Z,9.48
2019-06-10T16:06:12.039Z,8.75
2019-06-10T16:08:44.783Z,9.40
2019-06-10T16:11:18.923Z,9.10
2019-06-10T16:13:53.382Z,9.03
2019-06-10T16:16:26.053Z,9.63
2019-06-10T16:18:58.622Z,8.90
2019-06-10T16:21:31.225Z,8.58
2019-06-10T16:24:03.746Z,9.25
2019-06-10T16:26:36.444Z,9.15
2019-06-10T16:29:08.895Z,9.03
2019-06-10T16:31:42.542Z,9.15
2019-06-10T16:34:17.135Z,9.98
2019-06-10T16:36:53.365Z,10.10
2019-06-10T16:39:32.436Z,8.85
2019-06-10T16:42:07.590Z,8.68
2019-06-10T16:44:43.140Z,9.23
2019-06-10T16:47:16.943Z,9.43
2019-06-10T16:49:52.154Z,9.73
2019-06-10T16:52:27.697Z,10.72
2019-06-10T16:55:02.296Z,10.35
2019-06-10T16:57:35.508Z,9.85
2019-06-10T17:00:13.845Z,10.35
2019-06-10T17:02:44.710Z,10.25
2019-06-10T17:05:18.519Z,10.10
2019-06-10T17:07:52.661Z,9.50
2019-06-10T17:10:28.197Z,9.58
2019-06-10T17:13:03.126Z,9.80
2019-06-10T17:15:36.194Z,9.90
2019-06-10T17:18:13.081Z,10.25
2019-06-10T17:20:46.165Z,10.20
2019-06-10T17:23:26.988Z,10.08
2019-06-10T17:25:58.595Z,11.15
2019-06-10T17:28:36.617Z,9.50
2019-06-10T17:31:07.862Z,9.95
2019-06-10T17:33:42.665Z,9.95
2019-06-10T17:36:15.318Z,9.78
2019-06-10T17:38:47.894Z,10.05
2019-06-10T17:41:23.219Z,10.38
2019-06-10T17:43:55.333Z,10.10
2019-06-10T17:46:29.501Z,10.72
2019-06-10T17:49:03.075Z,11.12
2019-06-10T17:51:36.353Z,10.58
2019-06-10T17:54:09.568Z,11.78
2019-06-10T17:56:42.889Z,12.65
2019-06-10T17:59:16.012Z,12.55
2019-06-10T18:01:52.279Z,12.55
2019-06-10T18:04:25.613Z,12.47
2019-06-10T18:06:59.347Z,11.70
2019-06-10T18:09:36.634Z,13.30
2019-06-10T18:14:42.987Z,11.70
2019-06-10T18:17:16.357Z,11.10
2019-06-10T18:19:53.139Z,10.53
2019-06-10T18:22:26.468Z,10.50
2019-06-10T18:25:03.019Z,11.00
2019-06-10T18:27:36.970Z,11.15
2019-06-10T18:30:14.270Z,11.57
2019-06-10T18:32:48.076Z,10.10
2019-06-10T18:35:22.336Z,9.88
2019-06-10T18:37:56.696Z,9.78
2019-06-10T18:40:33.499Z,10.10
2019-06-10T18:43:07.665Z,10.28
2019-06-10T18:48:15.772Z,10.50
2019-06-10T18:50:49.576Z,11.10
2019-06-10T18:53:23.893Z,10.90
2019-06-10T18:55:59.059Z,11.30
2019-06-10T18:58:36.254Z,10.95
2019-06-10T19:01:12.432Z,10.50
2019-06-10T19:03:46.011Z,10.78
2019-06-10T19:06:22.798Z,10.70
2019-06-10T19:08:55.959Z,11.68
2019-06-10T19:14:05.280Z,11.48
2019-06-10T19:16:44.020Z,12.10
2019-06-10T19:19:18.617Z,11.80
2019-06-10T19:22:04.543Z,11.50
2019-06-10T19:24:28.444Z,11.80
2019-06-10T19:27:05.287Z,12.13
2019-06-10T19:29:45.445Z,12.23
2019-06-10T19:32:13.779Z,12.18
2019-06-10T19:34:51.992Z,12.28
2019-06-10T19:37:25.332Z,11.70
2019-06-10T19:40:01.623Z,11.40
2019-06-10T19:42:37.150Z,11.85
2019-06-10T19:45:12.555Z,11.75
2019-06-10T19:47:46.658Z,12.18
2019-06-10T19:50:20.264Z,12.00
2019-06-10T19:52:57.164Z,11.68
2019-06-10T19:55:32.455Z,12.33
2019-06-10T19:58:06.500Z,12.25
2019-06-10T20:00:41.484Z,12.40
2019-06-10T20:03:15.821Z,11.95
2019-06-10T20:05:52.749Z,12.43
2019-06-10T20:08:26.281Z,12.25
2019-06-10T20:11:03.391Z,11.55
2019-06-10T20:13:38.941Z,11.12
2019-06-10T20:16:12.144Z,10.72
2019-06-10T20:18:48.243Z,11.38
2019-06-10T20:21:22.706Z,10.38
2019-06-10T20:23:56.693Z,10.93
2019-06-10T20:26:32.981Z,10.80
2019-06-10T20:29:05.421Z,10.83
2019-06-10T20:31:40.091Z,10.53
2019-06-10T20:34:13.400Z,11.28
2019-06-10T20:36:46.942Z,10.40
2019-06-10T20:39:24.915Z,11.00
2019-06-10T20:41:58.249Z,11.18
2019-06-10T20:44:32.576Z,10.72
2019-06-10T20:47:05.058Z,11.22
2019-06-10T20:49:37.840Z,11.43
2019-06-10T20:52:13.277Z,11.65
2019-06-10T20:54:46.295Z,11.23
2019-06-10T20:57:18.873Z,11.40
2019-06-10T20:59:52.799Z,11.28
2019-06-10T21:02:26.266Z,11.53
2019-06-10T21:05:02.606Z,10.68
2019-06-10T21:07:39.219Z,11.22
2019-06-10T21:10:12.898Z,10.55
2019-06-10T21:12:49.432Z,11.38
2019-06-10T21:15:22.963Z,11.08
2019-06-10T21:17:55.471Z,11.15
2019-06-10T21:20:28.049Z,10.65
2019-06-10T21:23:03.110Z,11.10
2019-06-10T21:25:36.122Z,10.85
2019-06-10T21:28:08.721Z,11.08
2019-06-10T21:30:47.030Z,11.33
2019-06-10T21:33:15.490Z,10.90
2019-06-10T21:35:48.953Z,11.73
2019-06-10T21:38:23.203Z,11.73
2019-06-10T21:40:56.151Z,11.73
2019-06-10T21:43:28.648Z,12.03
2019-06-10T21:46:03.675Z,12.37
2019-06-10T21:48:37.386Z,12.80
2019-06-10T21:51:10.084Z,12.63
2019-06-10T21:53:42.641Z,12.75
2019-06-10T21:56:15.032Z,13.05
2019-06-10T21:58:48.842Z,13.40
2019-06-10T22:01:22.510Z,12.63
2019-06-10T22:04:00.849Z,12.28
2019-06-10T22:06:30.126Z,12.13
2019-06-10T22:09:03.985Z,12.15
2019-06-10T22:11:37.845Z,12.73
2019-06-10T22:14:12.110Z,12.07
2019-06-10T22:16:46.195Z,12.13
2019-06-10T22:19:19.143Z,11.70
2019-06-10T22:21:53.659Z,11.68
2019-06-10T22:24:25.933Z,11.45
2019-06-10T22:26:58.729Z,11.30
2019-06-10T22:29:32.244Z,11.30
2019-06-10T22:32:06.512Z,11.95
2019-06-10T22:34:39.157Z,10.98
2019-06-10T22:37:12.494Z,11.40
2019-06-10T22:39:45.678Z,11.28
2019-06-10T22:42:18.942Z,11.57
2019-06-10T22:44:54.512Z,11.83
2019-06-10T22:47:25.661Z,11.25
2019-06-10T22:49:59.964Z,12.28
2019-06-10T22:52:32.430Z,11.60
2019-06-10T22:55:09.330Z,11.15
2019-06-10T22:57:43.899Z,11.33
2019-06-10T23:00:16.338Z,11.45
2019-06-10T23:02:49.844Z,12.60
2019-06-10T23:05:23.294Z,11.88
2019-06-10T23:07:57.412Z,11.83
2019-06-10T23:10:30.427Z,11.55
2019-06-10T23:13:03.129Z,11.68
2019-06-10T23:15:35.705Z,12.18
2019-06-10T23:18:08.256Z,12.25
2019-06-10T23:20:42.733Z,12.13
2019-06-10T23:23:15.368Z,12.30
2019-06-10T23:25:47.882Z,12.40
2019-06-10T23:28:22.192Z,12.60
2019-06-10T23:30:57.286Z,11.73
2019-06-10T23:33:28.625Z,12.33
2019-06-10T23:36:03.723Z,12.03
2019-06-10T23:38:35.433Z,11.53
2019-06-10T23:41:07.798Z,11.63
2019-06-10T23:43:42.314Z,12.47
2019-06-10T23:46:14.562Z,11.53
2019-06-10T23:48:47.106Z,11.83
2019-06-10T23:51:19.639Z,11.55
2019-06-10T23:53:55.287Z,12.53
2019-06-10T23:56:26.869Z,12.20
2019-06-10T23:59:00.365Z,11.12
